createdAt,value
2019-03-03T00:02:14.638Z,1.60
2019-03-03T00:04:44.307Z,1.43
2019-03-03T00:07:14.071Z,1.30
2019-03-03T00:09:43.732Z,1.30
2019-03-03T00:12:13.366Z,1.27
2019-03-03T00:14:43.004Z,1.63
2019-03-03T00:17:12.692Z,1.50
2019-03-03T00:19:42.363Z,1.43
2019-03-03T00:22:12.041Z,1.40
2019-03-03T00:24:41.707Z,1.40
2019-03-03T00:27:11.458Z,1.80
2019-03-03T00:29:41.083Z,1.57
2019-03-03T00:32:10.755Z,1.60
2019-03-03T00:34:40.444Z,1.50
2019-03-03T00:37:16.552Z,1.40
2019-03-03T00:39:50.876Z,1.57
2019-03-03T00:42:42.536Z,1.33
2019-03-03T00:45:31.867Z,1.80
2019-03-03T00:48:38.957Z,1.80
2019-03-03T00:51:19.117Z,1.60
2019-03-03T00:54:07.776Z,1.60
2019-03-03T00:56:51.157Z,1.60
2019-03-03T00:59:36.297Z,1.50
2019-03-03T01:02:18.183Z,1.57
2019-03-03T01:05:03.275Z,1.50
2019-03-03T01:07:44.743Z,1.60
2019-03-03T01:10:20.539Z,1.67
2019-03-03T01:13:05.326Z,1.73
2019-03-03T01:16:12.165Z,2.03
2019-03-03T01:18:47.177Z,2.00
2019-03-03T01:21:24.335Z,1.77
2019-03-03T01:24:11.628Z,1.77
2019-03-03T01:26:41.509Z,1.90
2019-03-03T01:29:11.175Z,1.73
2019-03-03T01:31:40.812Z,1.77
2019-03-03T01:34:10.493Z,1.90
2019-03-03T01:36:40.141Z,2.00
2019-03-03T01:39:10.295Z,2.00
2019-03-03T01:41:40.040Z,1.80
2019-03-03T01:44:09.670Z,1.90
2019-03-03T01:46:39.312Z,1.80
2019-03-03T01:49:08.984Z,1.70
2019-03-03T01:51:38.678Z,1.90
2019-03-03T01:54:08.451Z,2.10
2019-03-03T01:56:38.116Z,1.80
2019-03-03T01:59:07.749Z,2.00
2019-03-03T02:01:37.399Z,1.97
2019-03-03T02:04:07.040Z,2.37
2019-03-03T02:06:36.696Z,2.23
2019-03-03T02:09:10.334Z,1.93
2019-03-03T02:11:40.066Z,1.80
2019-03-03T02:14:09.704Z,1.97
2019-03-03T02:16:39.383Z,2.10
2019-03-03T02:19:09.037Z,1.90
2019-03-03T02:21:38.697Z,1.97
2019-03-03T02:24:08.343Z,1.77
2019-03-03T02:26:38.153Z,2.10
2019-03-03T02:29:07.871Z,2.20
2019-03-03T02:31:37.536Z,1.70
2019-03-03T02:34:07.197Z,1.83
2019-03-03T02:36:36.855Z,1.80
2019-03-03T02:39:13.806Z,1.73
2019-03-03T02:41:43.486Z,1.90
2019-03-03T02:44:13.152Z,2.00
2019-03-03T02:46:42.889Z,1.93
2019-03-03T02:49:12.550Z,1.80
2019-03-03T02:51:42.180Z,2.07
2019-03-03T02:54:11.900Z,1.90
2019-03-03T02:56:41.671Z,2.17
2019-03-03T02:59:30.392Z,2.03
2019-03-03T03:02:03.271Z,1.80
2019-03-03T03:04:32.922Z,1.87
2019-03-03T03:07:11.118Z,2.20
2019-03-03T03:10:05.728Z,1.80
2019-03-03T03:13:03.363Z,1.83
2019-03-03T03:15:45.600Z,2.03
2019-03-03T03:18:37.353Z,1.70
2019-03-03T03:21:40.832Z,1.90
2019-03-03T03:24:41.363Z,1.77
2019-03-03T03:27:39.100Z,2.07
2019-03-03T03:30:42.945Z,1.80
2019-03-03T03:33:27.262Z,2.27
2019-03-03T03:36:07.752Z,2.00
2019-03-03T03:39:02.403Z,2.07
2019-03-03T03:41:43.832Z,2.27
2019-03-03T03:44:32.723Z,1.73
2019-03-03T03:47:22.909Z,2.10
2019-03-03T03:50:23.412Z,1.80
2019-03-03T03:53:00.549Z,2.10
2019-03-03T03:55:47.480Z,2.10
2019-03-03T03:58:22.979Z,2.47
2019-03-03T04:01:14.621Z,1.90
2019-03-03T04:04:12.525Z,2.00
2019-03-03T04:06:59.817Z,2.30
2019-03-03T04:09:50.935Z,2.00
2019-03-03T04:12:38.044Z,2.30
2019-03-03T04:15:35.970Z,2.20
2019-03-03T04:18:30.475Z,2.10
2019-03-03T04:21:12.996Z,1.90
2019-03-03T04:24:04.673Z,1.90
2019-03-03T04:26:42.715Z,1.80
2019-03-03T04:29:19.304Z,2.33
2019-03-03T04:32:10.860Z,2.03
2019-03-03T04:35:02.364Z,1.80
2019-03-03T04:37:53.733Z,1.90
2019-03-03T04:40:32.588Z,1.70
2019-03-03T04:43:27.196Z,2.20
2019-03-03T04:46:33.893Z,1.73
2019-03-03T04:49:40.487Z,2.00
2019-03-03T04:52:27.688Z,1.73
2019-03-03T04:55:19.176Z,1.87
2019-03-03T04:57:58.818Z,2.00
2019-03-03T05:00:50.424Z,1.53
2019-03-03T05:03:41.733Z,1.80
2019-03-03T05:06:39.295Z,2.10
2019-03-03T05:09:27.815Z,1.70
2019-03-03T05:12:39.355Z,1.93
2019-03-03T05:15:32.157Z,1.67
2019-03-03T05:18:08.456Z,1.80
2019-03-03T05:20:49.455Z,1.70
2019-03-03T05:23:19.159Z,1.60
2019-03-03T05:25:48.840Z,2.00
2019-03-03T05:28:18.499Z,2.03
2019-03-03T05:30:48.159Z,1.73
2019-03-03T05:33:17.802Z,1.73
2019-03-03T05:35:47.882Z,1.70
2019-03-03T05:38:17.571Z,1.73
2019-03-03T05:40:47.228Z,1.87
2019-03-03T05:43:16.876Z,1.80
2019-03-03T05:45:46.548Z,1.83
2019-03-03T05:48:16.307Z,1.83
2019-03-03T05:50:46.498Z,1.60
2019-03-03T05:53:16.148Z,1.70
2019-03-03T05:55:45.800Z,1.90
2019-03-03T05:58:15.546Z,1.90
2019-03-03T06:00:45.187Z,1.70
2019-03-03T06:03:14.896Z,1.70
2019-03-03T06:05:44.638Z,1.60
2019-03-03T06:08:14.386Z,1.80
2019-03-03T06:10:44.061Z,1.67
2019-03-03T06:13:13.746Z,1.83
2019-03-03T06:15:43.414Z,1.60
2019-03-03T06:18:13.137Z,1.80
2019-03-03T06:20:42.795Z,1.90
2019-03-03T06:23:12.511Z,1.73
2019-03-03T06:25:42.153Z,1.60
2019-03-03T06:28:11.847Z,1.60
2019-03-03T06:30:41.509Z,1.60
2019-03-03T06:33:11.189Z,1.63
2019-03-03T06:35:40.868Z,2.20
2019-03-03T06:38:10.644Z,2.20
2019-03-03T06:40:40.375Z,2.37
2019-03-03T06:43:10.029Z,2.50
2019-03-03T06:45:39.695Z,2.63
2019-03-03T06:48:09.619Z,2.50
2019-03-03T06:50:39.323Z,2.30
2019-03-03T06:53:09.133Z,2.40
2019-03-03T06:55:38.851Z,2.40
2019-03-03T06:58:08.763Z,1.87
2019-03-03T07:00:38.781Z,1.60
2019-03-03T07:03:08.690Z,1.83
2019-03-03T07:05:38.481Z,2.23
2019-03-03T07:08:08.355Z,2.40
2019-03-03T07:10:38.104Z,2.13
2019-03-03T07:13:07.821Z,2.30
2019-03-03T07:15:37.778Z,2.10
2019-03-03T07:18:07.787Z,2.13
2019-03-03T07:20:37.477Z,2.10
2019-03-03T07:23:07.155Z,2.10
2019-03-03T07:25:39.340Z,2.67
2019-03-03T07:28:09.143Z,2.30
2019-03-03T07:30:57.919Z,2.10
2019-03-03T07:33:33.376Z,2.10
2019-03-03T07:36:03.054Z,2.23
2019-03-03T07:38:32.869Z,2.30
2019-03-03T07:41:02.544Z,3.80
2019-03-03T07:43:32.340Z,3.80
2019-03-03T07:46:02.150Z,4.13
2019-03-03T07:48:31.899Z,4.47
2019-03-03T07:51:01.691Z,4.27
2019-03-03T07:53:31.488Z,4.67
2019-03-03T07:56:01.389Z,5.17
2019-03-03T07:58:31.199Z,7.30
2019-03-03T08:01:00.941Z,8.50
2019-03-03T08:03:30.727Z,8.63
2019-03-03T08:06:00.592Z,7.97
2019-03-03T08:08:30.484Z,6.30
2019-03-03T08:11:00.259Z,5.50
2019-03-03T08:13:29.938Z,8.20
2019-03-03T08:15:59.686Z,8.07
2019-03-03T08:18:29.496Z,7.10
2019-03-03T08:20:59.417Z,5.97
2019-03-03T08:23:29.247Z,6.33
2019-03-03T08:25:58.949Z,5.90
2019-03-03T08:28:28.759Z,5.20
2019-03-03T08:30:58.452Z,5.50
2019-03-03T08:33:28.495Z,4.90
2019-03-03T08:35:59.665Z,4.37
2019-03-03T08:38:29.445Z,3.83
2019-03-03T08:40:59.245Z,4.40
2019-03-03T08:43:36.511Z,5.23
2019-03-03T08:46:22.480Z,6.13
2019-03-03T08:49:13.891Z,5.43
2019-03-03T08:52:02.541Z,4.20
2019-03-03T08:54:59.321Z,4.70
2019-03-03T08:57:35.659Z,4.63
2019-03-03T09:00:18.233Z,4.30
2019-03-03T09:03:06.824Z,4.33
2019-03-03T09:06:04.487Z,3.43
2019-03-03T09:08:51.631Z,3.97
2019-03-03T09:11:39.040Z,4.00
2019-03-03T09:14:25.052Z,3.40
2019-03-03T09:17:13.018Z,4.17
2019-03-03T09:20:07.414Z,3.77
2019-03-03T09:22:55.995Z,4.03
2019-03-03T09:25:53.148Z,4.30
2019-03-03T09:28:40.347Z,3.70
2019-03-03T09:31:29.002Z,3.23
2019-03-03T09:34:16.535Z,3.10
2019-03-03T09:37:14.249Z,3.10
2019-03-03T09:40:21.289Z,3.07
2019-03-03T09:43:09.860Z,3.13
2019-03-03T09:46:07.431Z,2.80
2019-03-03T09:48:53.999Z,2.70
2019-03-03T09:51:33.624Z,3.53
2019-03-03T09:54:21.059Z,3.77
2019-03-03T09:57:08.417Z,3.13
2019-03-03T09:59:51.916Z,2.87
2019-03-03T10:02:58.931Z,3.27
2019-03-03T10:05:39.785Z,3.93
2019-03-03T10:08:40.506Z,4.33
2019-03-03T10:11:17.364Z,3.17
2019-03-03T10:13:57.872Z,3.43
2019-03-03T10:16:45.700Z,3.33
2019-03-03T10:19:40.502Z,3.37
2019-03-03T10:22:20.485Z,3.57
2019-03-03T10:24:59.231Z,3.03
2019-03-03T10:27:50.589Z,5.43
2019-03-03T10:30:34.393Z,8.03
2019-03-03T10:33:22.023Z,5.77
2019-03-03T10:36:09.230Z,5.47
2019-03-03T10:38:57.846Z,4.90
2019-03-03T10:41:43.779Z,5.03
2019-03-03T10:44:38.535Z,4.73
2019-03-03T10:47:25.831Z,5.13
2019-03-03T10:50:05.649Z,5.23
2019-03-03T10:52:42.427Z,6.07
2019-03-03T10:55:28.606Z,5.50
2019-03-03T10:58:26.498Z,7.43
2019-03-03T11:01:04.768Z,5.33
2019-03-03T11:03:56.258Z,5.50
2019-03-03T11:06:38.742Z,5.33
2019-03-03T11:09:23.707Z,5.43
2019-03-03T11:12:12.268Z,4.80
2019-03-03T11:15:00.825Z,4.17
2019-03-03T11:17:38.595Z,4.10
2019-03-03T11:20:21.096Z,3.77
2019-03-03T11:23:02.637Z,5.57
2019-03-03T11:25:49.570Z,29.27
2019-03-03T11:28:41.214Z,19.20
2019-03-03T11:31:28.777Z,20.27
2019-03-03T11:34:16.087Z,15.90
2019-03-03T11:36:56.038Z,11.73
2019-03-03T11:39:43.292Z,11.03
2019-03-03T11:42:42.018Z,8.93
2019-03-03T11:45:23.636Z,9.20
2019-03-03T11:48:11.294Z,8.77
2019-03-03T11:50:54.284Z,7.83
2019-03-03T11:53:42.807Z,6.43
2019-03-03T11:56:21.040Z,6.53
2019-03-03T11:59:15.752Z,6.37
2019-03-03T12:01:57.951Z,5.73
2019-03-03T12:05:01.902Z,5.70
2019-03-03T12:07:53.524Z,5.50
2019-03-03T12:11:07.320Z,5.30
2019-03-03T12:13:59.029Z,5.30
2019-03-03T12:16:53.544Z,4.80
2019-03-03T12:19:45.160Z,5.30
2019-03-03T12:22:33.387Z,5.00
2019-03-03T12:25:22.014Z,5.20
2019-03-03T12:28:29.077Z,4.80
2019-03-03T12:31:23.616Z,4.67
2019-03-03T12:34:15.021Z,4.33
2019-03-03T12:37:06.497Z,3.83
2019-03-03T12:39:55.129Z,3.93
2019-03-03T12:42:46.531Z,3.87
2019-03-03T12:45:31.536Z,3.50
2019-03-03T12:48:16.310Z,3.60
2019-03-03T12:50:56.244Z,3.53
2019-03-03T12:53:37.565Z,3.40
2019-03-03T12:56:35.159Z,2.83
2019-03-03T12:59:27.329Z,3.20
2019-03-03T13:02:08.454Z,3.20
2019-03-03T13:04:57.045Z,2.93
2019-03-03T13:07:45.743Z,3.20
2019-03-03T13:10:37.134Z,2.47
2019-03-03T13:13:19.646Z,2.80
2019-03-03T13:16:14.653Z,2.90
2019-03-03T13:19:00.012Z,2.83
2019-03-03T13:21:54.679Z,2.90
2019-03-03T13:24:49.259Z,2.67
2019-03-03T13:27:46.868Z,2.23
2019-03-03T13:30:53.787Z,2.33
2019-03-03T13:33:54.388Z,2.30
2019-03-03T13:36:37.903Z,2.20
2019-03-03T13:39:28.166Z,2.57
2019-03-03T13:42:07.621Z,2.00
2019-03-03T13:44:37.399Z,1.90
2019-03-03T13:47:07.208Z,2.07
2019-03-03T13:49:37.049Z,2.37
2019-03-03T13:52:06.783Z,1.93
2019-03-03T13:54:36.539Z,2.67
2019-03-03T13:57:06.321Z,1.83
2019-03-03T13:59:35.991Z,2.10
2019-03-03T14:02:05.853Z,1.90
2019-03-03T14:04:35.609Z,2.57
2019-03-03T14:07:05.404Z,2.27
2019-03-03T14:09:35.211Z,2.00
2019-03-03T14:12:05.000Z,2.23
2019-03-03T14:14:34.742Z,2.13
2019-03-03T14:17:04.484Z,1.77
2019-03-03T14:19:34.172Z,2.27
2019-03-03T14:22:03.934Z,1.90
2019-03-03T14:24:33.749Z,1.87
2019-03-03T14:27:10.314Z,2.50
2019-03-03T14:29:35.193Z,1.60
2019-03-03T14:32:05.081Z,1.93
2019-03-03T14:34:34.820Z,1.70
2019-03-03T14:37:04.749Z,2.23
2019-03-03T14:39:37.093Z,2.20
2019-03-03T14:42:07.020Z,2.13
2019-03-03T14:44:36.804Z,2.43
2019-03-03T14:47:06.896Z,2.40
2019-03-03T14:49:36.543Z,1.70
2019-03-03T14:52:06.421Z,2.13
2019-03-03T14:54:36.235Z,2.50
2019-03-03T14:57:06.020Z,1.80
2019-03-03T14:59:35.979Z,2.03
2019-03-03T15:02:05.729Z,1.90
2019-03-03T15:04:35.512Z,1.90
2019-03-03T15:07:05.318Z,1.93
2019-03-03T15:09:35.132Z,2.00
2019-03-03T15:12:05.771Z,2.37
2019-03-03T15:14:35.777Z,2.10
2019-03-03T15:17:05.682Z,2.30
2019-03-03T15:19:35.359Z,2.23
2019-03-03T15:22:05.059Z,2.63
2019-03-03T15:24:34.736Z,3.13
2019-03-03T15:27:07.695Z,3.93
2019-03-03T15:29:56.488Z,3.03
2019-03-03T15:32:26.587Z,3.50
2019-03-03T15:34:56.273Z,3.43
2019-03-03T15:37:26.448Z,3.30
2019-03-03T15:39:56.107Z,3.03
2019-03-03T15:42:25.889Z,2.43
2019-03-03T15:44:55.715Z,2.63
2019-03-03T15:47:44.537Z,2.43
2019-03-03T15:50:14.300Z,2.43
2019-03-03T15:52:43.978Z,3.23
2019-03-03T15:55:14.100Z,3.07
2019-03-03T15:57:44.003Z,2.90
2019-03-03T16:00:19.175Z,2.77
2019-03-03T16:02:49.094Z,3.00
2019-03-03T16:05:18.953Z,2.40
2019-03-03T16:07:48.782Z,2.83
2019-03-03T16:10:18.714Z,2.53
2019-03-03T16:12:48.451Z,2.53
2019-03-03T16:15:18.328Z,2.53
2019-03-03T16:17:48.278Z,2.50
2019-03-03T16:20:18.849Z,2.00
2019-03-03T16:22:49.008Z,3.00
2019-03-03T16:25:20.725Z,1.53
2019-03-03T16:27:50.746Z,1.50
2019-03-03T16:30:20.674Z,1.10
2019-03-03T16:32:50.429Z,1.70
2019-03-03T16:35:20.291Z,2.40
2019-03-03T16:37:50.304Z,1.70
2019-03-03T16:40:21.574Z,2.00
2019-03-03T16:42:51.433Z,2.07
2019-03-03T16:45:21.232Z,1.80
2019-03-03T16:47:51.112Z,1.93
2019-03-03T16:50:21.095Z,1.67
2019-03-03T16:52:50.875Z,1.60
2019-03-03T16:55:20.600Z,1.73
2019-03-03T16:57:50.486Z,2.10
2019-03-03T17:00:21.190Z,1.90
2019-03-03T17:02:52.182Z,1.80
2019-03-03T17:05:22.413Z,2.00
2019-03-03T17:07:52.174Z,1.80
2019-03-03T17:10:21.980Z,1.97
2019-03-03T17:13:22.834Z,2.07
2019-03-03T17:15:52.661Z,1.50
2019-03-03T17:18:22.485Z,1.70
2019-03-03T17:20:52.160Z,1.57
2019-03-03T17:23:21.948Z,1.80
2019-03-03T17:25:53.620Z,1.90
2019-03-03T17:28:25.980Z,1.70
2019-03-03T17:30:57.303Z,1.60
2019-03-03T17:33:29.144Z,1.47
2019-03-03T17:35:59.768Z,1.40
2019-03-03T17:38:31.936Z,1.40
2019-03-03T17:41:02.450Z,1.40
2019-03-03T17:43:32.850Z,1.87
2019-03-03T17:46:02.662Z,1.50
2019-03-03T17:48:32.580Z,1.47
2019-03-03T17:51:02.428Z,1.23
2019-03-03T17:53:32.143Z,1.57
2019-03-03T17:56:01.885Z,1.40
2019-03-03T17:58:31.964Z,1.10
2019-03-03T18:01:01.663Z,1.47
2019-03-03T18:03:31.757Z,1.40
2019-03-03T18:06:01.582Z,1.23
2019-03-03T18:08:31.378Z,1.60
2019-03-03T18:11:01.716Z,1.47
2019-03-03T18:13:31.436Z,1.10
2019-03-03T18:16:01.088Z,1.03
2019-03-03T18:18:30.890Z,1.50
2019-03-03T18:21:00.635Z,2.00
2019-03-03T18:23:30.569Z,1.90
2019-03-03T18:26:00.392Z,1.93
2019-03-03T18:28:30.163Z,2.43
2019-03-03T18:30:59.900Z,2.73
2019-03-03T18:33:29.643Z,2.17
2019-03-03T18:35:59.356Z,1.70
2019-03-03T18:38:29.236Z,1.67
2019-03-03T18:40:58.971Z,2.03
2019-03-03T18:43:28.689Z,1.73
2019-03-03T18:45:58.437Z,1.57
2019-03-03T18:48:28.403Z,2.00
2019-03-03T18:50:59.309Z,2.00
2019-03-03T18:53:29.087Z,2.40
2019-03-03T18:55:58.811Z,2.37
2019-03-03T18:58:28.719Z,2.33
2019-03-03T19:00:58.582Z,2.30
2019-03-03T19:03:28.295Z,2.67
2019-03-03T19:05:58.091Z,2.63
2019-03-03T19:08:30.300Z,3.23
2019-03-03T19:10:59.622Z,2.50
2019-03-03T19:13:29.304Z,2.70
2019-03-03T19:15:59.047Z,2.30
2019-03-03T19:18:28.797Z,2.13
2019-03-03T19:20:58.464Z,2.30
2019-03-03T19:23:28.197Z,1.90
2019-03-03T19:25:58.060Z,1.80
2019-03-03T19:28:27.792Z,1.83
2019-03-03T19:30:57.549Z,1.73
2019-03-03T19:33:32.374Z,1.60
2019-03-03T19:36:02.865Z,1.80
2019-03-03T19:38:32.739Z,2.00
2019-03-03T19:41:02.651Z,2.00
2019-03-03T19:43:32.367Z,1.50
2019-03-03T19:46:02.223Z,1.63
2019-03-03T19:48:32.324Z,1.43
2019-03-03T19:51:03.340Z,1.30
2019-03-03T19:53:33.239Z,1.33
2019-03-03T19:56:02.996Z,1.63
2019-03-03T19:58:32.708Z,1.70
2019-03-03T20:01:02.519Z,1.97
2019-03-03T20:03:32.335Z,2.07
2019-03-03T20:06:02.093Z,1.50
2019-03-03T20:08:32.010Z,1.27
2019-03-03T20:11:01.725Z,1.00
2019-03-03T20:13:31.454Z,1.27
2019-03-03T20:16:02.082Z,1.20
2019-03-03T20:18:31.980Z,1.37
2019-03-03T20:21:01.788Z,1.67
2019-03-03T20:23:31.513Z,1.37
2019-03-03T20:26:01.309Z,1.40
2019-03-03T20:28:31.084Z,1.10
2019-03-03T20:31:00.956Z,1.40
2019-03-03T20:33:30.700Z,0.80
2019-03-03T20:36:00.518Z,1.00
2019-03-03T20:38:30.361Z,1.13
2019-03-03T20:41:00.031Z,1.37
2019-03-03T20:43:29.743Z,1.40
2019-03-03T20:45:59.771Z,1.63
2019-03-03T20:48:29.574Z,1.40
2019-03-03T20:50:59.452Z,1.20
2019-03-03T20:53:30.389Z,1.13
2019-03-03T20:56:00.131Z,1.37
2019-03-03T20:58:29.887Z,1.17
2019-03-03T21:00:59.654Z,1.17
2019-03-03T21:03:29.293Z,1.10
2019-03-03T21:05:58.988Z,1.30
2019-03-03T21:08:28.748Z,1.13
2019-03-03T21:10:58.527Z,1.30
2019-03-03T21:13:28.173Z,1.60
2019-03-03T21:15:58.083Z,1.10
2019-03-03T21:18:27.928Z,1.50
2019-03-03T21:20:57.570Z,1.40
2019-03-03T21:23:27.284Z,1.70
2019-03-03T21:26:15.980Z,1.40
2019-03-03T21:28:45.783Z,1.40
2019-03-03T21:31:16.276Z,1.30
2019-03-03T21:33:45.953Z,1.33
2019-03-03T21:36:15.751Z,1.27
2019-03-03T21:38:45.405Z,1.40
2019-03-03T21:41:15.037Z,1.30
2019-03-03T21:43:44.690Z,1.20
2019-03-03T21:46:14.333Z,1.50
2019-03-03T21:48:45.083Z,1.60
2019-03-03T21:51:14.777Z,1.20
2019-03-03T21:53:44.735Z,1.43
2019-03-03T21:56:14.400Z,1.20
2019-03-03T21:58:44.146Z,1.53
2019-03-03T22:01:13.815Z,1.30
2019-03-03T22:03:43.453Z,1.40
2019-03-03T22:06:13.110Z,1.40
2019-03-03T22:08:42.779Z,1.40
2019-03-03T22:11:12.554Z,1.20
2019-03-03T22:13:42.233Z,1.27
2019-03-03T22:16:11.872Z,1.50
2019-03-03T22:18:41.623Z,1.30
2019-03-03T22:21:11.292Z,1.60
2019-03-03T22:23:40.935Z,1.30
2019-03-03T22:26:10.886Z,1.10
2019-03-03T22:28:40.597Z,1.30
2019-03-03T22:31:10.286Z,1.30
2019-03-03T22:33:39.947Z,1.30
2019-03-03T22:36:09.672Z,1.57
2019-03-03T22:38:39.411Z,1.47
2019-03-03T22:41:09.081Z,1.40
2019-03-03T22:43:38.756Z,1.60
2019-03-03T22:46:08.445Z,1.73
2019-03-03T22:48:38.173Z,1.30
2019-03-03T22:51:07.811Z,1.37
2019-03-03T22:53:37.443Z,1.50
2019-03-03T22:56:07.100Z,1.40
2019-03-03T22:58:36.861Z,1.37
2019-03-03T23:01:27.703Z,1.60
2019-03-03T23:04:24.900Z,1.63
2019-03-03T23:07:17.311Z,1.60
2019-03-03T23:10:43.324Z,1.50
2019-03-03T23:13:59.747Z,1.67
2019-03-03T23:17:02.999Z,1.50
2019-03-03T23:20:16.322Z,1.40
2019-03-03T23:23:28.636Z,1.40
2019-03-03T23:25:58.295Z,1.87
2019-03-03T23:28:28.107Z,1.70
2019-03-03T23:31:09.415Z,1.83
2019-03-03T23:33:39.127Z,1.60
2019-03-03T23:36:08.772Z,1.70
2019-03-03T23:38:38.547Z,1.57
2019-03-03T23:41:08.181Z,1.57
2019-03-03T23:43:37.833Z,2.00
2019-03-03T23:46:07.474Z,1.70
2019-03-03T23:48:37.208Z,1.67
2019-03-03T23:51:06.861Z,1.43
2019-03-03T23:53:36.524Z,1.70
2019-03-03T23:56:06.167Z,1.57
2019-03-03T23:58:36.175Z,1.47
